createdAt,value
2019-05-21T00:04:50.250Z,4.57
2019-05-21T00:09:53.592Z,6.07
2019-05-21T00:14:57.045Z,5.07
2019-05-21T00:20:00.385Z,5.80
2019-05-21T00:25:04.788Z,5.10
2019-05-21T00:30:44.624Z,4.87
2019-05-21T00:36:26.534Z,4.60
2019-05-21T00:42:00.923Z,4.03
2019-05-21T00:47:05.955Z,4.77
2019-05-21T00:52:09.684Z,4.97
2019-05-21T00:57:13.206Z,4.53
2019-05-21T01:02:16.611Z,4.23
2019-05-21T01:07:19.971Z,5.40
2019-05-21T01:12:23.327Z,5.03
2019-05-21T01:17:26.725Z,5.23
2019-05-21T01:22:30.066Z,5.50
2019-05-21T01:27:33.529Z,4.57
2019-05-21T01:32:36.862Z,5.07
2019-05-21T01:37:40.371Z,4.23
2019-05-21T01:42:43.707Z,4.63
2019-05-21T01:47:47.147Z,4.43
2019-05-21T01:52:50.541Z,4.27
2019-05-21T01:57:53.840Z,4.00
2019-05-21T02:02:57.197Z,4.87
2019-05-21T02:08:00.599Z,4.07
2019-05-21T02:13:05.061Z,3.97
2019-05-21T02:18:08.449Z,4.27
2019-05-21T02:23:11.806Z,4.50
2019-05-21T02:28:15.142Z,3.33
2019-05-21T02:33:18.599Z,3.17
2019-05-21T02:38:22.004Z,3.47
2019-05-21T02:43:25.443Z,4.35
2019-05-21T02:48:28.781Z,3.70
2019-05-21T02:53:34.553Z,4.23
2019-05-21T02:58:38.182Z,3.83
2019-05-21T03:03:41.643Z,4.00
2019-05-21T03:08:44.959Z,4.03
2019-05-21T03:13:48.371Z,4.20
2019-05-21T03:18:51.882Z,4.43
2019-05-21T03:23:55.235Z,3.37
2019-05-21T03:28:58.600Z,3.37
2019-05-21T03:34:01.933Z,3.77
2019-05-21T03:39:05.566Z,3.70
2019-05-21T03:44:08.960Z,3.30
2019-05-21T03:49:12.228Z,3.97
2019-05-21T03:54:15.652Z,3.10
2019-05-21T03:59:19.017Z,3.07
2019-05-21T04:04:22.507Z,3.30
2019-05-21T04:09:25.861Z,3.23
2019-05-21T04:14:43.087Z,3.63
2019-05-21T04:19:48.113Z,3.40
2019-05-21T04:24:51.582Z,2.80
2019-05-21T04:29:55.049Z,2.37
2019-05-21T04:34:58.398Z,2.93
2019-05-21T04:40:01.823Z,2.67
2019-05-21T04:45:08.433Z,2.37
2019-05-21T04:50:11.793Z,2.10
2019-05-21T04:55:15.296Z,2.53
2019-05-21T05:00:18.721Z,2.23
2019-05-21T05:05:22.120Z,2.53
2019-05-21T05:10:25.537Z,2.33
2019-05-21T05:15:28.937Z,2.03
2019-05-21T05:20:32.288Z,2.00
2019-05-21T05:25:35.653Z,1.93
2019-05-21T05:30:39.142Z,2.20
2019-05-21T05:35:43.467Z,1.93
2019-05-21T05:40:46.806Z,1.50
2019-05-21T05:45:52.215Z,1.07
2019-05-21T05:50:57.218Z,0.80
2019-05-21T05:56:00.680Z,0.57
2019-05-21T06:01:04.058Z,0.72
2019-05-21T06:06:07.421Z,0.53
2019-05-21T06:11:10.763Z,0.60
2019-05-21T06:16:14.171Z,0.40
2019-05-21T06:21:17.635Z,0.40
2019-05-21T06:26:21.069Z,0.50
2019-05-21T06:31:24.691Z,0.40
2019-05-21T06:36:28.233Z,0.30
2019-05-21T06:41:31.787Z,0.80
2019-05-21T06:46:35.207Z,0.62
2019-05-21T06:51:39.485Z,0.40
2019-05-21T06:56:42.838Z,0.30
2019-05-21T07:01:46.167Z,0.83
2019-05-21T07:06:49.761Z,1.07
2019-05-21T07:11:53.126Z,1.20
2019-05-21T07:16:56.561Z,0.90
2019-05-21T07:22:12.299Z,1.00
2019-05-21T07:27:05.152Z,0.60
2019-05-21T07:32:08.528Z,0.77
2019-05-21T07:37:11.946Z,0.80
2019-05-21T07:42:15.299Z,0.53
2019-05-21T07:47:18.648Z,0.50
2019-05-21T07:52:21.975Z,0.87
2019-05-21T07:57:25.338Z,0.50
2019-05-21T08:02:28.687Z,0.50
2019-05-21T08:07:32.008Z,1.00
2019-05-21T08:12:39.281Z,1.57
2019-05-21T08:17:40.492Z,1.83
2019-05-21T08:22:43.905Z,2.53
2019-05-21T08:27:47.239Z,3.17
2019-05-21T08:32:50.624Z,1.20
2019-05-21T08:37:53.996Z,1.43
2019-05-21T08:42:57.365Z,0.60
2019-05-21T08:48:00.678Z,2.50
2019-05-21T08:53:04.017Z,0.60
2019-05-21T08:58:07.951Z,2.07
2019-05-21T09:03:11.434Z,1.07
2019-05-21T09:08:14.885Z,0.60
2019-05-21T09:13:18.360Z,0.63
2019-05-21T09:18:21.837Z,2.93
2019-05-21T09:23:25.278Z,0.77
2019-05-21T09:28:28.725Z,0.50
2019-05-21T09:33:32.062Z,0.30
2019-05-21T09:38:35.430Z,0.60
2019-05-21T09:43:38.777Z,0.70
2019-05-21T09:48:42.207Z,0.70
2019-05-21T09:53:45.542Z,0.60
2019-05-21T09:58:49.095Z,0.50
2019-05-21T10:03:54.102Z,0.50
2019-05-21T10:08:57.459Z,0.53
2019-05-21T10:14:00.806Z,0.53
2019-05-21T10:19:04.197Z,0.47
2019-05-21T10:24:07.695Z,0.50
2019-05-21T10:29:11.056Z,0.60
2019-05-21T10:34:14.396Z,0.60
2019-05-21T10:39:18.108Z,0.40
2019-05-21T10:44:21.377Z,0.43
2019-05-21T10:49:24.736Z,0.33
2019-05-21T10:54:28.077Z,0.40
2019-05-21T10:59:31.402Z,0.40
2019-05-21T11:04:39.139Z,0.63
2019-05-21T11:09:43.662Z,0.50
2019-05-21T11:14:47.125Z,2.10
2019-05-21T11:19:50.570Z,0.90
2019-05-21T11:24:53.860Z,0.63
2019-05-21T11:29:57.168Z,0.77
2019-05-21T11:35:00.602Z,0.83
2019-05-21T11:40:08.368Z,0.43
2019-05-21T11:45:10.477Z,0.70
2019-05-21T11:50:18.191Z,0.80
2019-05-21T11:55:21.522Z,0.80
2019-05-21T12:00:28.133Z,0.80
2019-05-21T12:05:31.479Z,0.60
2019-05-21T12:10:34.845Z,1.10
2019-05-21T12:15:38.185Z,1.17
2019-05-21T12:20:41.536Z,1.20
2019-05-21T12:25:44.958Z,1.20
2019-05-21T12:30:48.328Z,1.63
2019-05-21T12:35:51.686Z,1.33
2019-05-21T12:40:55.070Z,1.87
2019-05-21T12:45:58.382Z,2.30
2019-05-21T12:51:01.718Z,1.77
2019-05-21T12:56:05.064Z,1.20
2019-05-21T13:01:08.391Z,1.20
2019-05-21T13:06:11.933Z,1.60
2019-05-21T13:11:15.258Z,1.40
2019-05-21T13:16:18.614Z,1.37
2019-05-21T13:21:21.930Z,1.30
2019-05-21T13:26:25.285Z,1.30
2019-05-21T13:31:28.695Z,1.60
2019-05-21T13:36:32.158Z,2.30
2019-05-21T13:41:35.502Z,2.10
2019-05-21T13:46:38.872Z,2.60
2019-05-21T13:51:42.198Z,2.90
2019-05-21T13:56:45.917Z,1.97
2019-05-21T14:01:49.328Z,2.10
2019-05-21T14:06:52.721Z,2.20
2019-05-21T14:11:57.057Z,2.27
2019-05-21T14:17:00.397Z,2.17
2019-05-21T14:22:03.804Z,1.97
2019-05-21T14:27:07.235Z,1.97
2019-05-21T14:32:10.635Z,2.60
2019-05-21T14:37:14.044Z,2.30
2019-05-21T14:42:17.378Z,2.77
2019-05-21T14:47:20.780Z,2.40
2019-05-21T14:52:24.213Z,2.63
2019-05-21T14:57:27.658Z,2.50
2019-05-21T15:02:30.999Z,2.67
2019-05-21T15:07:34.505Z,2.43
2019-05-21T15:12:37.846Z,2.07
2019-05-21T15:17:41.284Z,2.60
2019-05-21T15:22:44.692Z,2.77
2019-05-21T15:27:48.021Z,1.73
2019-05-21T15:32:52.320Z,1.90
2019-05-21T15:37:55.714Z,1.83
2019-05-21T15:42:59.190Z,2.17
2019-05-21T15:48:02.515Z,2.40
2019-05-21T15:53:05.876Z,2.27
2019-05-21T15:58:09.225Z,2.00
2019-05-21T16:03:12.586Z,1.60
2019-05-21T16:08:15.942Z,3.73
2019-05-21T16:13:19.292Z,2.57
2019-05-21T16:18:22.676Z,3.50
2019-05-21T16:23:26.055Z,2.80
2019-05-21T16:28:29.390Z,3.37
2019-05-21T16:33:33.011Z,3.97
2019-05-21T16:38:36.383Z,3.00
2019-05-21T16:43:40.033Z,3.10
2019-05-21T16:48:43.468Z,3.00
2019-05-21T16:53:46.831Z,2.93
2019-05-21T16:58:50.294Z,3.80
2019-05-21T17:03:59.764Z,3.40
2019-05-21T17:08:58.759Z,3.70
2019-05-21T17:14:02.075Z,3.73
2019-05-21T17:19:05.410Z,3.97
2019-05-21T17:24:08.753Z,4.27
2019-05-21T17:29:12.119Z,4.90
2019-05-21T17:34:15.473Z,4.40
2019-05-21T17:39:18.893Z,7.03
2019-05-21T17:44:24.881Z,4.83
2019-05-21T17:49:27.328Z,5.22
2019-05-21T17:54:30.768Z,4.80
2019-05-21T17:59:34.176Z,5.03
2019-05-21T18:04:38.432Z,4.63
2019-05-21T18:09:42.467Z,4.60
2019-05-21T18:14:46.034Z,5.30
2019-05-21T18:19:50.943Z,5.50
2019-05-21T18:24:55.320Z,5.97
2019-05-21T18:29:59.051Z,5.07
2019-05-21T18:35:02.423Z,5.77
2019-05-21T18:40:08.161Z,5.47
2019-05-21T18:45:11.703Z,6.07
2019-05-21T18:50:15.950Z,6.40
2019-05-21T18:55:19.363Z,5.67
2019-05-21T19:00:22.948Z,4.53
2019-05-21T19:05:26.410Z,5.73
2019-05-21T19:10:29.787Z,4.77
2019-05-21T19:15:33.122Z,4.93
2019-05-21T19:20:36.447Z,4.43
2019-05-21T19:25:39.816Z,4.23
2019-05-21T19:30:43.156Z,3.90
2019-05-21T19:35:46.536Z,4.77
2019-05-21T19:40:50.065Z,3.17
2019-05-21T19:45:54.409Z,3.30
2019-05-21T19:51:00.435Z,3.17
2019-05-21T19:56:03.886Z,2.93
2019-05-21T20:01:08.364Z,3.17
2019-05-21T20:06:12.954Z,3.33
2019-05-21T20:11:17.499Z,3.37
2019-05-21T20:16:22.091Z,3.33
2019-05-21T20:21:25.877Z,3.47
2019-05-21T20:26:30.861Z,3.17
2019-05-21T20:31:34.594Z,3.67
2019-05-21T20:36:40.768Z,3.90
2019-05-21T20:41:44.180Z,4.37
2019-05-21T20:46:48.247Z,4.40
2019-05-21T20:51:51.663Z,4.07
2019-05-21T20:56:55.139Z,3.77
2019-05-21T21:01:59.102Z,4.97
2019-05-21T21:07:03.884Z,3.60
2019-05-21T21:12:08.861Z,3.90
2019-05-21T21:17:14.548Z,4.07
2019-05-21T21:22:18.130Z,3.10
2019-05-21T21:27:21.936Z,4.60
2019-05-21T21:32:25.438Z,3.80
2019-05-21T21:37:28.797Z,4.27
2019-05-21T21:42:32.515Z,3.90
2019-05-21T21:47:36.444Z,4.33
2019-05-21T21:52:40.621Z,4.03
2019-05-21T21:57:43.973Z,3.97
2019-05-21T22:02:47.381Z,3.37
2019-05-21T22:07:50.909Z,3.00
2019-05-21T22:12:54.355Z,4.03
2019-05-21T22:17:58.243Z,12.67
2019-05-21T22:23:01.651Z,3.33
2019-05-21T22:28:05.065Z,4.13
2019-05-21T22:33:08.656Z,4.73
2019-05-21T22:38:12.118Z,3.80
2019-05-21T22:43:15.481Z,3.73
2019-05-21T22:48:18.798Z,3.33
2019-05-21T22:53:22.144Z,3.90
2019-05-21T22:58:25.556Z,4.13
2019-05-21T23:03:29.436Z,3.50
2019-05-21T23:08:33.251Z,4.00
2019-05-21T23:13:36.832Z,3.73
2019-05-21T23:18:40.180Z,4.28
2019-05-21T23:23:44.724Z,3.23
2019-05-21T23:28:48.540Z,3.37
2019-05-21T23:33:51.960Z,3.30
2019-05-21T23:38:56.233Z,3.50
2019-05-21T23:44:00.598Z,3.90
2019-05-21T23:49:04.052Z,3.90
2019-05-21T23:54:07.674Z,4.27
2019-05-21T23:59:11.034Z,3.37
